sensor_id;sensor_type;location;lat;lon;timestamp;pressure;altitude;pressure_sealevel;temperature;humidity
75006;BME280;63553;51.814;4.600;2024-01-16T00:00:01;101103.84;;;13.89;60.88
75006;BME280;63553;51.814;4.600;2024-01-16T00:02:26;101107.91;;;13.92;60.89
75006;BME280;63553;51.814;4.600;2024-01-16T00:04:52;101103.00;;;13.89;60.89
75006;BME280;63553;51.814;4.600;2024-01-16T00:07:17;101105.44;;;13.90;60.73
75006;BME280;63553;51.814;4.600;2024-01-16T00:09:42;101101.03;;;13.89;60.97
75006;BME280;63553;51.814;4.600;2024-01-16T00:12:08;101105.81;;;13.89;60.86
75006;BME280;63553;51.814;4.600;2024-01-16T00:14:37;101101.72;;;13.86;60.95
75006;BME280;63553;51.814;4.600;2024-01-16T00:17:02;101106.47;;;13.86;60.90
75006;BME280;63553;51.814;4.600;2024-01-16T00:19:28;101101.72;;;13.86;60.96
75006;BME280;63553;51.814;4.600;2024-01-16T00:21:53;101108.44;;;13.85;61.24
75006;BME280;63553;51.814;4.600;2024-01-16T00:24:18;101109.28;;;13.86;61.18
75006;BME280;63553;51.814;4.600;2024-01-16T00:26:44;101105.66;;;13.85;61.12
75006;BME280;63553;51.814;4.600;2024-01-16T00:29:09;101102.38;;;13.83;61.19
75006;BME280;63553;51.814;4.600;2024-01-16T00:31:37;101105.19;;;13.83;61.13
75006;BME280;63553;51.814;4.600;2024-01-16T00:34:03;101099.59;;;13.83;61.13
75006;BME280;63553;51.814;4.600;2024-01-16T00:36:28;101110.28;;;13.81;61.31
75006;BME280;63553;51.814;4.600;2024-01-16T00:38:53;101116.69;;;13.82;61.01
75006;BME280;63553;51.814;4.600;2024-01-16T00:41:19;101115.84;;;13.81;61.18
75006;BME280;63553;51.814;4.600;2024-01-16T00:43:44;101120.63;;;13.81;61.14
75006;BME280;63553;51.814;4.600;2024-01-16T00:46:10;101119.00;;;13.80;61.12
75006;BME280;63553;51.814;4.600;2024-01-16T00:48:36;101126.22;;;13.81;61.02
75006;BME280;63553;51.814;4.600;2024-01-16T00:51:01;101126.09;;;13.77;61.15
75006;BME280;63553;51.814;4.600;2024-01-16T00:53:27;101119.84;;;13.80;61.11
75006;BME280;63553;51.814;4.600;2024-01-16T00:55:52;101126.56;;;13.79;61.12
75006;BME280;63553;51.814;4.600;2024-01-16T00:58:22;101125.41;;;13.80;60.79
75006;BME280;63553;51.814;4.600;2024-01-16T01:00:48;101128.22;;;13.80;60.86
75006;BME280;63553;51.814;4.600;2024-01-16T01:03:13;101122.63;;;13.80;61.01
75006;BME280;63553;51.814;4.600;2024-01-16T01:05:38;101127.38;;;13.80;60.79
75006;BME280;63553;51.814;4.600;2024-01-16T01:08:04;101120.97;;;13.79;61.10
75006;BME280;63553;51.814;4.600;2024-01-16T01:10:29;101115.22;;;13.76;60.85
75006;BME280;63553;51.814;4.600;2024-01-16T01:12:55;101113.75;;;13.78;60.82
75006;BME280;63553;51.814;4.600;2024-01-16T01:15:20;101118.50;;;13.78;60.91
75006;BME280;63553;51.814;4.600;2024-01-16T01:17:48;101130.03;;;13.76;60.99
75006;BME280;63553;51.814;4.600;2024-01-16T01:20:14;101130.03;;;13.76;60.98
75006;BME280;63553;51.814;4.600;2024-01-16T01:22:39;101126.75;;;13.74;61.17
75006;BME280;63553;51.814;4.600;2024-01-16T01:25:05;101121.19;;;13.74;61.27
75006;BME280;63553;51.814;4.600;2024-01-16T01:27:31;101118.38;;;13.74;61.24
75006;BME280;63553;51.814;4.600;2024-01-16T01:29:56;101115.59;;;13.74;61.29
75006;BME280;63553;51.814;4.600;2024-01-16T01:32:21;101131.53;;;13.74;61.11
75006;BME280;63553;51.814;4.600;2024-01-16T01:34:47;101140.22;;;13.72;61.32
75006;BME280;63553;51.814;4.600;2024-01-16T01:37:12;101141.06;;;13.73;61.33
75006;BME280;63553;51.814;4.600;2024-01-16T01:39:38;101154.22;;;13.72;61.11
75006;BME280;63553;51.814;4.600;2024-01-16T01:42:03;101136.13;;;13.70;61.05
75006;BME280;63553;51.814;4.600;2024-01-16T01:44:29;101148.16;;;13.70;60.84
75006;BME280;63553;51.814;4.600;2024-01-16T01:46:56;101150.47;;;13.68;60.65
75006;BME280;63553;51.814;4.600;2024-01-16T01:49:22;101156.88;;;13.69;61.06
75006;BME280;63553;51.814;4.600;2024-01-16T01:51:49;101159.66;;;13.69;60.86
75006;BME280;63553;51.814;4.600;2024-01-16T01:54:15;101152.09;;;13.69;61.06
75006;BME280;63553;51.814;4.600;2024-01-16T01:56:46;101155.69;;;13.70;60.96
75006;BME280;63553;51.814;4.600;2024-01-16T01:59:13;101145.69;;;13.69;61.10
75006;BME280;63553;51.814;4.600;2024-01-16T02:01:40;101142.91;;;13.69;60.84
75006;BME280;63553;51.814;4.600;2024-01-16T02:04:06;101144.06;;;13.68;61.05
75006;BME280;63553;51.814;4.600;2024-01-16T02:06:32;101143.69;;;13.69;60.91
75006;BME280;63553;51.814;4.600;2024-01-16T02:08:58;101141.72;;;13.70;61.16
75006;BME280;63553;51.814;4.600;2024-01-16T02:11:24;101138.94;;;13.70;61.02
75006;BME280;63553;51.814;4.600;2024-01-16T02:13:50;101135.31;;;13.69;61.04
75006;BME280;63553;51.814;4.600;2024-01-16T02:16:22;101134.53;;;13.69;61.12
75006;BME280;63553;51.814;4.600;2024-01-16T02:18:49;101132.88;;;13.68;61.13
75006;BME280;63553;51.814;4.600;2024-01-16T02:21:17;101139.59;;;13.67;61.21
75006;BME280;63553;51.814;4.600;2024-01-16T02:23:44;101125.31;;;13.68;61.31
75006;BME280;63553;51.814;4.600;2024-01-16T02:26:09;101115.28;;;13.67;61.46
75006;BME280;63553;51.814;4.600;2024-01-16T02:28:35;101116.94;;;13.68;61.52
75006;BME280;63553;51.814;4.600;2024-01-16T02:31:00;101109.69;;;13.67;61.70
75006;BME280;63553;51.814;4.600;2024-01-16T02:33:26;101111.66;;;13.67;61.67
75006;BME280;63553;51.814;4.600;2024-01-16T02:35:51;101109.22;;;13.65;61.88
75006;BME280;63553;51.814;4.600;2024-01-16T02:38:16;101107.56;;;13.64;61.55
75006;BME280;63553;51.814;4.600;2024-01-16T02:40:42;101122.38;;;13.65;61.67
75006;BME280;63553;51.814;4.600;2024-01-16T02:43:07;101107.94;;;13.63;61.90
75006;BME280;63553;51.814;4.600;2024-01-16T02:45:33;101119.91;;;13.63;61.78
75006;BME280;63553;51.814;4.600;2024-01-16T02:47:59;101129.44;;;13.62;61.89
75006;BME280;63553;51.814;4.600;2024-01-16T02:50:24;101122.22;;;13.61;61.91
75006;BME280;63553;51.814;4.600;2024-01-16T02:52:50;101118.13;;;13.59;61.69
75006;BME280;63553;51.814;4.600;2024-01-16T02:55:16;101114.50;;;13.58;61.86
75006;BME280;63553;51.814;4.600;2024-01-16T02:57:41;101099.38;;;13.59;61.84
75006;BME280;63553;51.814;4.600;2024-01-16T03:00:07;101091.31;;;13.58;61.59
75006;BME280;63553;51.814;4.600;2024-01-16T03:02:33;101094.13;;;13.58;61.79
75006;BME280;63553;51.814;4.600;2024-01-16T03:04:59;101106.94;;;13.59;61.81
75006;BME280;63553;51.814;4.600;2024-01-16T03:07:24;101108.91;;;13.58;61.86
75006;BME280;63553;51.814;4.600;2024-01-16T03:09:50;101104.00;;;13.55;61.93
75006;BME280;63553;51.814;4.600;2024-01-16T03:12:15;101114.03;;;13.56;61.98
75006;BME280;63553;51.814;4.600;2024-01-16T03:14:40;101106.94;;;13.59;61.63
75006;BME280;63553;51.814;4.600;2024-01-16T03:17:06;101111.22;;;13.56;61.87
75006;BME280;63553;51.814;4.600;2024-01-16T03:19:32;101119.63;;;13.56;61.82
75006;BME280;63553;51.814;4.600;2024-01-16T03:21:57;101107.63;;;13.56;61.80
75006;BME280;63553;51.814;4.600;2024-01-16T03:24:22;101106.78;;;13.55;61.88
75006;BME280;63553;51.814;4.600;2024-01-16T03:26:48;101101.22;;;13.55;61.77
75006;BME280;63553;51.814;4.600;2024-01-16T03:29:13;101114.34;;;13.55;61.90
75006;BME280;63553;51.814;4.600;2024-01-16T03:31:38;101107.94;;;13.54;61.72
75006;BME280;63553;51.814;4.600;2024-01-16T03:34:04;101114.34;;;13.55;61.90
75006;BME280;63553;51.814;4.600;2024-01-16T03:36:29;101119.94;;;13.55;62.05
75006;BME280;63553;51.814;4.600;2024-01-16T03:38:55;101119.94;;;13.55;61.59
75006;BME280;63553;51.814;4.600;2024-01-16T03:41:20;101107.47;;;13.52;61.67
75006;BME280;63553;51.814;4.600;2024-01-16T03:43:46;101110.25;;;13.52;61.58
75006;BME280;63553;51.814;4.600;2024-01-16T03:46:11;101109.94;;;13.54;61.79
75006;BME280;63553;51.814;4.600;2024-01-16T03:48:37;101117.00;;;13.51;61.57
75006;BME280;63553;51.814;4.600;2024-01-16T03:51:02;101109.78;;;13.50;61.62
75006;BME280;63553;51.814;4.600;2024-01-16T03:53:27;101109.44;;;13.52;61.44
75006;BME280;63553;51.814;4.600;2024-01-16T03:55:53;101089.06;;;13.51;61.33
75006;BME280;63553;51.814;4.600;2024-01-16T03:58:19;101086.25;;;13.51;61.21
75006;BME280;63553;51.814;4.600;2024-01-16T04:00:44;101100.22;;;13.51;61.41
75006;BME280;63553;51.814;4.600;2024-01-16T04:03:10;101085.47;;;13.51;60.99
75006;BME280;63553;51.814;4.600;2024-01-16T04:05:36;101086.25;;;13.51;60.97
75006;BME280;63553;51.814;4.600;2024-01-16T04:08:01;101088.94;;;13.48;60.78
75006;BME280;63553;51.814;4.600;2024-01-16T04:10:27;101088.09;;;13.47;60.70
75006;BME280;63553;51.814;4.600;2024-01-16T04:12:52;101084.13;;;13.48;60.96
75006;BME280;63553;51.814;4.600;2024-01-16T04:15:18;101074.13;;;13.47;60.69
75006;BME280;63553;51.814;4.600;2024-01-16T04:17:43;101075.75;;;13.48;60.55
75006;BME280;63553;51.814;4.600;2024-01-16T04:20:09;101070.16;;;13.48;60.57
75006;BME280;63553;51.814;4.600;2024-01-16T04:22:35;101068.56;;;13.47;60.70
75006;BME280;63553;51.814;4.600;2024-01-16T04:25:00;101064.47;;;13.45;60.38
75006;BME280;63553;51.814;4.600;2024-01-16T04:27:25;101064.09;;;13.46;60.44
75006;BME280;63553;51.814;4.600;2024-01-16T04:29:51;101073.63;;;13.45;60.28
75006;BME280;63553;51.814;4.600;2024-01-16T04:32:16;101078.44;;;13.45;60.28
75006;BME280;63553;51.814;4.600;2024-01-16T04:34:42;101072.84;;;13.45;59.85
75006;BME280;63553;51.814;4.600;2024-01-16T04:37:07;101075.97;;;13.43;60.34
75006;BME280;63553;51.814;4.600;2024-01-16T04:39:33;101075.63;;;13.45;60.19
75006;BME280;63553;51.814;4.600;2024-01-16T04:41:58;101075.13;;;13.43;59.96
75006;BME280;63553;51.814;4.600;2024-01-16T04:44:24;101063.97;;;13.43;60.01
75006;BME280;63553;51.814;4.600;2024-01-16T04:46:49;101078.91;;;13.47;59.94
75006;BME280;63553;51.814;4.600;2024-01-16T04:49:14;101072.00;;;13.44;60.13
75006;BME280;63553;51.814;4.600;2024-01-16T04:51:40;101071.19;;;13.44;60.34
75006;BME280;63553;51.814;4.600;2024-01-16T04:54:05;101064.78;;;13.43;60.12
75006;BME280;63553;51.814;4.600;2024-01-16T04:56:30;101064.78;;;13.43;60.42
75006;BME280;63553;51.814;4.600;2024-01-16T04:58:56;101054.44;;;13.44;60.31
75006;BME280;63553;51.814;4.600;2024-01-16T05:01:21;101058.38;;;13.43;60.21
75006;BME280;63553;51.814;4.600;2024-01-16T05:03:46;101058.38;;;13.43;60.32
75006;BME280;63553;51.814;4.600;2024-01-16T05:06:13;101067.56;;;13.43;60.41
75006;BME280;63553;51.814;4.600;2024-01-16T05:08:40;101055.56;;;13.43;60.30
75006;BME280;63553;51.814;4.600;2024-01-16T05:11:05;101046.31;;;13.59;62.06
75006;BME280;63553;51.814;4.600;2024-01-16T05:13:30;101040.81;;;13.71;64.02
75006;BME280;63553;51.814;4.600;2024-01-16T05:15:56;101048.63;;;13.78;62.92
75006;BME280;63553;51.814;4.600;2024-01-16T05:18:21;101038.22;;;13.87;63.09
75006;BME280;63553;51.814;4.600;2024-01-16T05:20:46;101036.75;;;13.89;62.54
75006;BME280;63553;51.814;4.600;2024-01-16T05:23:12;101032.50;;;13.83;62.15
75006;BME280;63553;51.814;4.600;2024-01-16T05:25:37;101033.94;;;13.89;63.54
75006;BME280;63553;51.814;4.600;2024-01-16T05:28:03;101033.94;;;13.89;64.88
75006;BME280;63553;51.814;4.600;2024-01-16T05:30:28;101022.00;;;13.80;64.17
75006;BME280;63553;51.814;4.600;2024-01-16T05:32:54;101027.72;;;13.84;63.21
75006;BME280;63553;51.814;4.600;2024-01-16T05:35:20;101022.47;;;13.82;63.43
75006;BME280;63553;51.814;4.600;2024-01-16T05:37:45;101013.63;;;13.80;63.08
75006;BME280;63553;51.814;4.600;2024-01-16T05:40:11;101013.81;;;13.75;62.71
75006;BME280;63553;51.814;4.600;2024-01-16T05:42:37;101012.88;;;13.71;62.80
75006;BME280;63553;51.814;4.600;2024-01-16T05:45:03;101007.81;;;13.65;62.87
75006;BME280;63553;51.814;4.600;2024-01-16T05:47:28;101009.78;;;13.64;62.79
75006;BME280;63553;51.814;4.600;2024-01-16T05:49:56;101005.84;;;13.65;62.69
75006;BME280;63553;51.814;4.600;2024-01-16T05:52:22;101000.44;;;13.60;62.72
75006;BME280;63553;51.814;4.600;2024-01-16T05:54:47;100994.84;;;13.60;62.47
75006;BME280;63553;51.814;4.600;2024-01-16T05:57:13;100996.50;;;13.61;62.45
75006;BME280;63553;51.814;4.600;2024-01-16T05:59:38;100996.84;;;13.60;62.38
75006;BME280;63553;51.814;4.600;2024-01-16T06:02:03;100989.13;;;13.57;62.50
75006;BME280;63553;51.814;4.600;2024-01-16T06:04:29;100996.69;;;13.56;62.82
75006;BME280;63553;51.814;4.600;2024-01-16T06:06:54;100987.50;;;13.56;62.63
75006;BME280;63553;51.814;4.600;2024-01-16T06:09:20;100979.44;;;13.54;62.62
75006;BME280;63553;51.814;4.600;2024-01-16T06:11:45;100982.22;;;13.54;62.50
75006;BME280;63553;51.814;4.600;2024-01-16T06:14:10;100991.78;;;13.53;62.15
75006;BME280;63553;51.814;4.600;2024-01-16T06:16:37;100994.91;;;13.52;62.64
75006;BME280;63553;51.814;4.600;2024-01-16T06:19:03;100991.28;;;13.51;62.52
75006;BME280;63553;51.814;4.600;2024-01-16T06:21:28;100998.88;;;13.51;62.58
75006;BME280;63553;51.814;4.600;2024-01-16T06:23:54;100983.56;;;13.48;62.49
75006;BME280;63553;51.814;4.600;2024-01-16T06:26:19;101000.34;;;13.48;62.66
75006;BME280;63553;51.814;4.600;2024-01-16T06:28:44;100992.31;;;13.47;62.72
75006;BME280;63553;51.814;4.600;2024-01-16T06:31:10;100995.56;;;13.49;62.62
75006;BME280;63553;51.814;4.600;2024-01-16T06:33:36;101002.66;;;13.46;62.52
75006;BME280;63553;51.814;4.600;2024-01-16T06:36:02;101002.66;;;13.46;62.57
75006;BME280;63553;51.814;4.600;2024-01-16T06:38:31;101008.25;;;13.46;62.70
75006;BME280;63553;51.814;4.600;2024-01-16T06:40:57;101003.47;;;13.47;62.47
75006;BME280;63553;51.814;4.600;2024-01-16T06:43:23;101009.91;;;13.47;62.29
75006;BME280;63553;51.814;4.600;2024-01-16T06:45:49;101007.41;;;13.46;62.40
75006;BME280;63553;51.814;4.600;2024-01-16T06:48:14;101013.00;;;13.46;62.48
75006;BME280;63553;51.814;4.600;2024-01-16T06:50:39;101014.19;;;13.45;62.66
75006;BME280;63553;51.814;4.600;2024-01-16T06:53:05;101009.75;;;13.44;62.41
75006;BME280;63553;51.814;4.600;2024-01-16T06:55:30;101017.38;;;13.84;72.66
75006;BME280;63553;51.814;4.600;2024-01-16T06:57:55;101005.66;;;13.91;63.65
75006;BME280;63553;51.814;4.600;2024-01-16T07:00:21;101009.81;;;14.06;65.22
75006;BME280;63553;51.814;4.600;2024-01-16T07:02:48;101016.13;;;14.56;81.40
75006;BME280;63553;51.814;4.600;2024-01-16T07:05:13;101009.41;;;14.36;76.59
75006;BME280;63553;51.814;4.600;2024-01-16T07:07:39;101009.09;;;14.29;77.56
75006;BME280;63553;51.814;4.600;2024-01-16T07:10:05;101011.63;;;14.22;74.19
75006;BME280;63553;51.814;4.600;2024-01-16T07:12:33;101016.97;;;14.15;76.47
75006;BME280;63553;51.814;4.600;2024-01-16T07:14:59;101017.50;;;14.09;77.73
75006;BME280;63553;51.814;4.600;2024-01-16T07:17:24;101019.34;;;14.05;78.42
75006;BME280;63553;51.814;4.600;2024-01-16T07:19:49;101020.22;;;13.97;78.73
75006;BME280;63553;51.814;4.600;2024-01-16T07:22:15;101017.66;;;13.91;79.28
75006;BME280;63553;51.814;4.600;2024-01-16T07:24:41;101020.66;;;13.86;78.82
75006;BME280;63553;51.814;4.600;2024-01-16T07:27:06;101029.38;;;13.85;78.28
75006;BME280;63553;51.814;4.600;2024-01-16T07:29:32;101028.41;;;13.81;79.28
75006;BME280;63553;51.814;4.600;2024-01-16T07:31:58;101037.44;;;13.78;80.16
75006;BME280;63553;51.814;4.600;2024-01-16T07:34:23;101040.47;;;13.73;79.96
75006;BME280;63553;51.814;4.600;2024-01-16T07:36:48;101043.59;;;13.71;81.02
75006;BME280;63553;51.814;4.600;2024-01-16T07:39:14;101045.44;;;13.67;81.14
75006;BME280;63553;51.814;4.600;2024-01-16T07:41:39;101041.81;;;13.67;81.67
75006;BME280;63553;51.814;4.600;2024-01-16T07:44:05;101045.63;;;13.62;81.41
75006;BME280;63553;51.814;4.600;2024-01-16T07:46:30;101046.31;;;13.59;81.69
75006;BME280;63553;51.814;4.600;2024-01-16T07:48:56;101051.75;;;13.56;80.85
75006;BME280;63553;51.814;4.600;2024-01-16T07:51:21;101051.94;;;13.51;81.35
75006;BME280;63553;51.814;4.600;2024-01-16T07:53:46;101053.91;;;13.50;80.43
75006;BME280;63553;51.814;4.600;2024-01-16T07:56:14;101053.75;;;13.47;79.88
75006;BME280;63553;51.814;4.600;2024-01-16T07:58:39;101054.91;;;13.46;79.88
75006;BME280;63553;51.814;4.600;2024-01-16T08:01:04;101053.59;;;13.43;79.42
75006;BME280;63553;51.814;4.600;2024-01-16T08:03:29;101061.66;;;13.45;78.99
75006;BME280;63553;51.814;4.600;2024-01-16T08:05:55;101052.66;;;13.39;78.34
75006;BME280;63553;51.814;4.600;2024-01-16T08:08:21;101049.88;;;13.39;78.32
75006;BME280;63553;51.814;4.600;2024-01-16T08:10:46;101051.00;;;13.38;77.95
75006;BME280;63553;51.814;4.600;2024-01-16T08:13:12;101051.84;;;13.39;77.25
75006;BME280;63553;51.814;4.600;2024-01-16T08:15:38;101048.53;;;13.36;77.50
75006;BME280;63553;51.814;4.600;2024-01-16T08:18:03;101050.84;;;13.34;77.39
75006;BME280;63553;51.814;4.600;2024-01-16T08:20:29;101048.88;;;13.35;77.10
75006;BME280;63553;51.814;4.600;2024-01-16T08:22:54;101045.28;;;13.34;76.77
75006;BME280;63553;51.814;4.600;2024-01-16T08:25:19;101050.84;;;13.34;76.42
75006;BME280;63553;51.814;4.600;2024-01-16T08:27:45;101047.59;;;13.32;76.55
75006;BME280;63553;51.814;4.600;2024-01-16T08:30:10;101044.81;;;13.32;76.13
75006;BME280;63553;51.814;4.600;2024-01-16T08:32:39;101044.81;;;13.32;76.13
75006;BME280;63553;51.814;4.600;2024-01-16T08:35:05;101042.69;;;13.29;75.51
75006;BME280;63553;51.814;4.600;2024-01-16T08:37:32;101050.22;;;13.29;75.37
75006;BME280;63553;51.814;4.600;2024-01-16T08:39:58;101053.03;;;13.29;75.57
75006;BME280;63553;51.814;4.600;2024-01-16T08:42:23;101038.09;;;13.25;75.18
75006;BME280;63553;51.814;4.600;2024-01-16T08:44:48;101050.91;;;13.26;74.65
75006;BME280;63553;51.814;4.600;2024-01-16T08:47:14;101047.97;;;13.22;74.64
75006;BME280;63553;51.814;4.600;2024-01-16T08:49:40;101046.81;;;13.23;74.42
75006;BME280;63553;51.814;4.600;2024-01-16T08:52:05;101050.06;;;13.25;74.35
75006;BME280;63553;51.814;4.600;2024-01-16T08:54:31;101050.44;;;13.24;73.95
75006;BME280;63553;51.814;4.600;2024-01-16T08:56:57;101050.44;;;13.24;73.88
75006;BME280;63553;51.814;4.600;2024-01-16T08:59:23;101048.09;;;13.26;73.90
75006;BME280;63553;51.814;4.600;2024-01-16T09:01:49;101050.06;;;13.25;74.05
75006;BME280;63553;51.814;4.600;2024-01-16T09:04:14;101043.34;;;13.26;73.46
75006;BME280;63553;51.814;4.600;2024-01-16T09:06:40;101051.38;;;13.28;73.28
75006;BME280;63553;51.814;4.600;2024-01-16T09:09:05;101041.38;;;13.27;73.35
75006;BME280;63553;51.814;4.600;2024-01-16T09:11:31;101042.53;;;13.26;73.17
75006;BME280;63553;51.814;4.600;2024-01-16T09:13:59;101049.41;;;13.28;73.20
75006;BME280;63553;51.814;4.600;2024-01-16T09:16:24;101049.75;;;13.27;73.00
75006;BME280;63553;51.814;4.600;2024-01-16T09:18:50;101038.59;;;13.27;72.75
75006;BME280;63553;51.814;4.600;2024-01-16T09:21:15;101049.75;;;13.27;72.75
75006;BME280;63553;51.814;4.600;2024-01-16T09:23:41;101049.25;;;13.25;72.52
75006;BME280;63553;51.814;4.600;2024-01-16T09:26:06;101052.88;;;13.25;72.60
75006;BME280;63553;51.814;4.600;2024-01-16T09:28:32;101055.34;;;13.27;72.07
75006;BME280;63553;51.814;4.600;2024-01-16T09:30:57;101051.38;;;13.28;72.60
75006;BME280;63553;51.814;4.600;2024-01-16T09:33:23;101057.94;;;13.32;72.24
75006;BME280;63553;51.814;4.600;2024-01-16T09:35:50;101050.03;;;13.34;72.04
75006;BME280;63553;51.814;4.600;2024-01-16T09:38:15;101047.06;;;13.39;71.98
75006;BME280;63553;51.814;4.600;2024-01-16T09:40:41;101035.22;;;13.42;71.93
75006;BME280;63553;51.814;4.600;2024-01-16T09:43:13;101042.59;;;13.47;71.50
75006;BME280;63553;51.814;4.600;2024-01-16T09:45:39;101051.44;;;13.49;71.30
75006;BME280;63553;51.814;4.600;2024-01-16T09:48:05;101046.00;;;13.52;71.46
75006;BME280;63553;51.814;4.600;2024-01-16T09:50:33;101049.28;;;13.54;70.94
75006;BME280;63553;51.814;4.600;2024-01-16T09:52:58;101048.91;;;13.64;70.64
75006;BME280;63553;51.814;4.600;2024-01-16T09:55:24;101045.22;;;13.72;70.25
75006;BME280;63553;51.814;4.600;2024-01-16T09:57:52;101038.63;;;13.77;69.77
75006;BME280;63553;51.814;4.600;2024-01-16T10:00:18;101037.97;;;13.80;69.49
75006;BME280;63553;51.814;4.600;2024-01-16T10:02:44;101040.69;;;13.88;69.30
75006;BME280;63553;51.814;4.600;2024-01-16T10:05:10;101036.69;;;13.98;68.69
75006;BME280;63553;51.814;4.600;2024-01-16T10:07:41;101038.22;;;14.08;68.02
75006;BME280;63553;51.814;4.600;2024-01-16T10:10:07;101035.31;;;14.25;67.36
75006;BME280;63553;51.814;4.600;2024-01-16T10:12:37;101034.22;;;14.38;66.67
75006;BME280;63553;51.814;4.600;2024-01-16T10:15:05;101032.53;;;14.45;66.34
75006;BME280;63553;51.814;4.600;2024-01-16T10:17:43;101026.84;;;14.54;65.86
75006;BME280;63553;51.814;4.600;2024-01-16T10:20:09;101032.25;;;14.71;65.07
75006;BME280;63553;51.814;4.600;2024-01-16T10:22:39;101018.41;;;14.87;63.92
75006;BME280;63553;51.814;4.600;2024-01-16T10:27:30;101029.75;;;15.02;63.07
75006;BME280;63553;51.814;4.600;2024-01-16T10:29:57;101023.56;;;15.09;62.44
75006;BME280;63553;51.814;4.600;2024-01-16T10:32:30;101028.88;;;15.23;61.73
75006;BME280;63553;51.814;4.600;2024-01-16T10:35:07;101014.16;;;15.38;61.12
75006;BME280;63553;51.814;4.600;2024-01-16T10:37:51;101011.72;;;15.48;60.59
75006;BME280;63553;51.814;4.600;2024-01-16T10:40:18;101012.75;;;15.56;60.25
75006;BME280;63553;51.814;4.600;2024-01-16T10:45:22;101007.75;;;15.62;59.39
75006;BME280;63553;51.814;4.600;2024-01-16T10:47:48;101008.91;;;15.61;59.38
75006;BME280;63553;51.814;4.600;2024-01-16T10:50:14;101008.81;;;15.57;59.33
75006;BME280;63553;51.814;4.600;2024-01-16T10:52:48;101013.72;;;15.48;59.79
75006;BME280;63553;51.814;4.600;2024-01-16T10:55:22;101008.56;;;15.38;59.84
75006;BME280;63553;51.814;4.600;2024-01-16T10:57:49;101005.06;;;15.29;59.97
75006;BME280;63553;51.814;4.600;2024-01-16T11:00:18;101002.94;;;15.26;60.19
75006;BME280;63553;51.814;4.600;2024-01-16T11:02:49;100999.91;;;15.19;60.46
75006;BME280;63553;51.814;4.600;2024-01-16T11:05:17;100979.03;;;15.16;60.34
75006;BME280;63553;51.814;4.600;2024-01-16T11:07:43;100968.38;;;15.10;59.98
75006;BME280;63553;51.814;4.600;2024-01-16T11:10:10;100973.41;;;15.04;60.83
75006;BME280;63553;51.814;4.600;2024-01-16T11:12:38;100980.41;;;14.98;60.89
75006;BME280;63553;51.814;4.600;2024-01-16T11:15:05;100977.47;;;14.94;61.26
75006;BME280;63553;51.814;4.600;2024-01-16T11:17:33;100974.53;;;14.91;60.90
75006;BME280;63553;51.814;4.600;2024-01-16T11:20:00;100974.44;;;14.87;61.54
75006;BME280;63553;51.814;4.600;2024-01-16T11:22:27;100971.03;;;14.82;61.77
75006;BME280;63553;51.814;4.600;2024-01-16T11:25:12;100968.47;;;14.77;61.59
75006;BME280;63553;51.814;4.600;2024-01-16T11:27:39;100959.47;;;14.71;62.08
75006;BME280;63553;51.814;4.600;2024-01-16T11:30:06;100966.94;;;14.67;62.21
75006;BME280;63553;51.814;4.600;2024-01-16T11:35:02;100973.13;;;14.61;62.51
75006;BME280;63553;51.814;4.600;2024-01-16T11:37:29;100967.72;;;14.56;62.24
75006;BME280;63553;51.814;4.600;2024-01-16T11:42:50;100970.28;;;14.49;62.75
75006;BME280;63553;51.814;4.600;2024-01-16T11:48:08;100963.59;;;14.41;63.18
75006;BME280;63553;51.814;4.600;2024-01-16T11:50:34;100964.28;;;14.38;63.16
75006;BME280;63553;51.814;4.600;2024-01-16T11:53:00;100968.97;;;14.34;63.10
75006;BME280;63553;51.814;4.600;2024-01-16T11:55:33;100969.94;;;14.29;63.10
75006;BME280;63553;51.814;4.600;2024-01-16T12:00:40;100954.91;;;14.22;63.69
75006;BME280;63553;51.814;4.600;2024-01-16T12:03:08;100943.91;;;14.17;63.49
75006;BME280;63553;51.814;4.600;2024-01-16T12:05:34;100930.81;;;14.09;63.61
75006;BME280;63553;51.814;4.600;2024-01-16T12:07:59;100935.72;;;14.12;63.87
75006;BME280;63553;51.814;4.600;2024-01-16T12:10:25;100935.59;;;14.08;63.66
75006;BME280;63553;51.814;4.600;2024-01-16T12:12:52;100929.06;;;14.04;63.91
75006;BME280;63553;51.814;4.600;2024-01-16T12:15:21;100934.66;;;14.04;63.69
75006;BME280;63553;51.814;4.600;2024-01-16T12:17:54;100933.72;;;14.00;64.18
75006;BME280;63553;51.814;4.600;2024-01-16T12:20:20;100928.94;;;14.01;63.85
75006;BME280;63553;51.814;4.600;2024-01-16T12:22:55;100932.19;;;14.03;63.48
75006;BME280;63553;51.814;4.600;2024-01-16T12:25:20;100935.69;;;14.00;63.59
75006;BME280;63553;51.814;4.600;2024-01-16T12:28:03;100936.84;;;13.99;63.71
75006;BME280;63553;51.814;4.600;2024-01-16T12:30:33;100917.63;;;13.97;63.59
75006;BME280;63553;51.814;4.600;2024-01-16T12:33:12;100925.88;;;13.93;63.90
75006;BME280;63553;51.814;4.600;2024-01-16T12:35:42;100916.19;;;13.91;63.98
75006;BME280;63553;51.814;4.600;2024-01-16T12:38:09;100926.56;;;13.90;64.03
75006;BME280;63553;51.814;4.600;2024-01-16T12:43:12;100923.63;;;13.87;64.09
75006;BME280;63553;51.814;4.600;2024-01-16T12:45:38;100923.16;;;13.85;64.03
75006;BME280;63553;51.814;4.600;2024-01-16T12:48:04;100915.59;;;13.85;63.94
75006;BME280;63553;51.814;4.600;2024-01-16T12:50:30;100915.59;;;13.85;63.55
75006;BME280;63553;51.814;4.600;2024-01-16T12:53:03;100912.34;;;13.83;63.60
75006;BME280;63553;51.814;4.600;2024-01-16T12:55:32;100905.78;;;13.79;63.59
75006;BME280;63553;51.814;4.600;2024-01-16T13:00:47;100892.03;;;13.74;64.11
75006;BME280;63553;51.814;4.600;2024-01-16T13:03:19;100892.03;;;13.74;64.37
75006;BME280;63553;51.814;4.600;2024-01-16T13:05:46;100889.91;;;13.71;64.47